sensor_id;sensor_type;location;lat;lon;timestamp;P1;durP1;ratioP1;P2;durP2;ratioP2
77330;SDS011;66405;48.328;7.820;2023-01-01T00:00:45;11.43;;;5.13;;
77330;SDS011;66405;48.328;7.820;2023-01-01T00:03:10;10.75;;;5.50;;
77330;SDS011;66405;48.328;7.820;2023-01-01T00:05:39;11.95;;;5.53;;
77330;SDS011;66405;48.328;7.820;2023-01-01T00:08:05;8.93;;;5.25;;
77330;SDS011;66405;48.328;7.820;2023-01-01T00:10:31;15.32;;;6.57;;
77330;SDS011;66405;48.328;7.820;2023-01-01T00:12:57;13.55;;;6.50;;
77330;SDS011;66405;48.328;7.820;2023-01-01T00:15:23;14.15;;;7.43;;
77330;SDS011;66405;48.328;7.820;2023-01-01T00:17:49;11.75;;;6.18;;
77330;SDS011;66405;48.328;7.820;2023-01-01T00:20:15;11.27;;;6.40;;
77330;SDS011;66405;48.328;7.820;2023-01-01T00:22:40;10.63;;;5.85;;
77330;SDS011;66405;48.328;7.820;2023-01-01T00:25:06;12.52;;;6.72;;
77330;SDS011;66405;48.328;7.820;2023-01-01T00:27:32;14.25;;;6.85;;
77330;SDS011;66405;48.328;7.820;2023-01-01T00:29:57;15.60;;;7.03;;
77330;SDS011;66405;48.328;7.820;2023-01-01T00:32:23;11.80;;;5.43;;
77330;SDS011;66405;48.328;7.820;2023-01-01T00:34:48;11.55;;;5.32;;
77330;SDS011;66405;48.328;7.820;2023-01-01T00:37:14;12.65;;;5.97;;
77330;SDS011;66405;48.328;7.820;2023-01-01T00:39:42;11.80;;;6.00;;
77330;SDS011;66405;48.328;7.820;2023-01-01T00:42:08;10.75;;;5.22;;
77330;SDS011;66405;48.328;7.820;2023-01-01T00:44:33;13.40;;;5.57;;
77330;SDS011;66405;48.328;7.820;2023-01-01T00:46:59;10.13;;;5.20;;
77330;SDS011;66405;48.328;7.820;2023-01-01T00:49:24;14.98;;;5.63;;
77330;SDS011;66405;48.328;7.820;2023-01-01T00:51:50;8.45;;;4.82;;
77330;SDS011;66405;48.328;7.820;2023-01-01T00:54:15;9.35;;;5.57;;
77330;SDS011;66405;48.328;7.820;2023-01-01T00:56:41;11.18;;;5.68;;
77330;SDS011;66405;48.328;7.820;2023-01-01T00:59:06;9.05;;;4.57;;
77330;SDS011;66405;48.328;7.820;2023-01-01T01:01:31;11.40;;;6.05;;
77330;SDS011;66405;48.328;7.820;2023-01-01T01:03:58;18.10;;;7.90;;
77330;SDS011;66405;48.328;7.820;2023-01-01T01:06:24;12.93;;;6.32;;
77330;SDS011;66405;48.328;7.820;2023-01-01T01:08:49;16.60;;;10.38;;
77330;SDS011;66405;48.328;7.820;2023-01-01T01:11:16;10.98;;;5.03;;
77330;SDS011;66405;48.328;7.820;2023-01-01T01:13:44;18.20;;;12.07;;
77330;SDS011;66405;48.328;7.820;2023-01-01T01:16:16;35.85;;;25.70;;
77330;SDS011;66405;48.328;7.820;2023-01-01T01:18:46;159.20;;;77.63;;
77330;SDS011;66405;48.328;7.820;2023-01-01T01:21:14;99.40;;;48.80;;
77330;SDS011;66405;48.328;7.820;2023-01-01T01:23:42;72.72;;;36.75;;
77330;SDS011;66405;48.328;7.820;2023-01-01T01:26:08;38.63;;;18.02;;
77330;SDS011;66405;48.328;7.820;2023-01-01T01:28:41;12.98;;;7.35;;
77330;SDS011;66405;48.328;7.820;2023-01-01T01:31:08;99.78;;;54.45;;
77330;SDS011;66405;48.328;7.820;2023-01-01T01:33:33;21.60;;;13.57;;
77330;SDS011;66405;48.328;7.820;2023-01-01T01:36:00;8.48;;;4.47;;
77330;SDS011;66405;48.328;7.820;2023-01-01T01:38:26;9.57;;;3.60;;
77330;SDS011;66405;48.328;7.820;2023-01-01T01:40:52;8.63;;;3.83;;
77330;SDS011;66405;48.328;7.820;2023-01-01T01:46:13;8.25;;;4.40;;
77330;SDS011;66405;48.328;7.820;2023-01-01T01:48:45;7.97;;;4.00;;
77330;SDS011;66405;48.328;7.820;2023-01-01T01:51:14;9.73;;;3.90;;
77330;SDS011;66405;48.328;7.820;2023-01-01T01:53:44;8.80;;;3.70;;
77330;SDS011;66405;48.328;7.820;2023-01-01T01:56:14;8.88;;;3.17;;
77330;SDS011;66405;48.328;7.820;2023-01-01T01:58:45;6.80;;;2.90;;
77330;SDS011;66405;48.328;7.820;2023-01-01T02:01:11;7.22;;;3.13;;
77330;SDS011;66405;48.328;7.820;2023-01-01T02:03:45;7.78;;;3.38;;
77330;SDS011;66405;48.328;7.820;2023-01-01T02:06:16;5.90;;;2.58;;
77330;SDS011;66405;48.328;7.820;2023-01-01T02:08:43;6.90;;;2.58;;
77330;SDS011;66405;48.328;7.820;2023-01-01T02:11:09;6.93;;;2.80;;
77330;SDS011;66405;48.328;7.820;2023-01-01T02:13:37;6.97;;;2.75;;
77330;SDS011;66405;48.328;7.820;2023-01-01T02:16:06;8.02;;;3.47;;
77330;SDS011;66405;48.328;7.820;2023-01-01T02:18:42;8.25;;;2.88;;
77330;SDS011;66405;48.328;7.820;2023-01-01T02:21:19;6.40;;;2.83;;
77330;SDS011;66405;48.328;7.820;2023-01-01T02:32:22;7.72;;;3.03;;
77330;SDS011;66405;48.328;7.820;2023-01-01T02:37:19;7.10;;;2.88;;
77330;SDS011;66405;48.328;7.820;2023-01-01T02:39:49;5.45;;;2.50;;
77330;SDS011;66405;48.328;7.820;2023-01-01T02:42:18;4.75;;;2.30;;
77330;SDS011;66405;48.328;7.820;2023-01-01T02:44:46;7.97;;;2.13;;
77330;SDS011;66405;48.328;7.820;2023-01-01T02:47:16;5.78;;;2.28;;
77330;SDS011;66405;48.328;7.820;2023-01-01T02:50:07;6.05;;;2.20;;
77330;SDS011;66405;48.328;7.820;2023-01-01T02:53:06;7.40;;;2.58;;
77330;SDS011;66405;48.328;7.820;2023-01-01T02:55:35;3.95;;;2.00;;
77330;SDS011;66405;48.328;7.820;2023-01-01T03:01:02;5.50;;;1.85;;
77330;SDS011;66405;48.328;7.820;2023-01-01T03:04:09;10.13;;;1.90;;
77330;SDS011;66405;48.328;7.820;2023-01-01T03:07:21;4.20;;;1.95;;
77330;SDS011;66405;48.328;7.820;2023-01-01T03:09:52;6.07;;;2.42;;
77330;SDS011;66405;48.328;7.820;2023-01-01T03:13:18;8.55;;;2.10;;
77330;SDS011;66405;48.328;7.820;2023-01-01T03:18:43;5.60;;;1.92;;
77330;SDS011;66405;48.328;7.820;2023-01-01T03:21:12;5.28;;;1.80;;
77330;SDS011;66405;48.328;7.820;2023-01-01T03:23:43;4.50;;;1.90;;
77330;SDS011;66405;48.328;7.820;2023-01-01T03:26:12;4.55;;;2.05;;
77330;SDS011;66405;48.328;7.820;2023-01-01T03:28:52;6.35;;;2.70;;
77330;SDS011;66405;48.328;7.820;2023-01-01T03:31:22;4.57;;;2.20;;
77330;SDS011;66405;48.328;7.820;2023-01-01T03:33:55;4.90;;;2.15;;
77330;SDS011;66405;48.328;7.820;2023-01-01T03:36:28;6.55;;;1.65;;
77330;SDS011;66405;48.328;7.820;2023-01-01T03:39:00;5.07;;;2.03;;
77330;SDS011;66405;48.328;7.820;2023-01-01T03:41:46;5.47;;;2.22;;
77330;SDS011;66405;48.328;7.820;2023-01-01T03:47:00;5.28;;;2.05;;
77330;SDS011;66405;48.328;7.820;2023-01-01T03:49:26;5.15;;;2.17;;
77330;SDS011;66405;48.328;7.820;2023-01-01T03:54:52;5.10;;;2.22;;
77330;SDS011;66405;48.328;7.820;2023-01-01T03:57:24;6.18;;;1.83;;
77330;SDS011;66405;48.328;7.820;2023-01-01T04:00:06;4.22;;;1.75;;
77330;SDS011;66405;48.328;7.820;2023-01-01T04:02:41;5.45;;;2.00;;
77330;SDS011;66405;48.328;7.820;2023-01-01T04:05:15;5.85;;;1.90;;
77330;SDS011;66405;48.328;7.820;2023-01-01T04:07:42;5.10;;;2.33;;
77330;SDS011;66405;48.328;7.820;2023-01-01T04:10:08;5.78;;;2.00;;
77330;SDS011;66405;48.328;7.820;2023-01-01T04:12:50;4.43;;;1.58;;
77330;SDS011;66405;48.328;7.820;2023-01-01T04:15:18;4.72;;;2.10;;
77330;SDS011;66405;48.328;7.820;2023-01-01T04:17:46;7.22;;;2.22;;
77330;SDS011;66405;48.328;7.820;2023-01-01T04:20:12;4.47;;;1.88;;
77330;SDS011;66405;48.328;7.820;2023-01-01T04:22:38;7.85;;;2.25;;
77330;SDS011;66405;48.328;7.820;2023-01-01T04:25:03;6.70;;;2.20;;
77330;SDS011;66405;48.328;7.820;2023-01-01T04:27:29;5.30;;;2.00;;
77330;SDS011;66405;48.328;7.820;2023-01-01T04:29:55;5.57;;;1.88;;
77330;SDS011;66405;48.328;7.820;2023-01-01T04:32:21;4.15;;;1.88;;
77330;SDS011;66405;48.328;7.820;2023-01-01T04:34:47;5.43;;;1.77;;
77330;SDS011;66405;48.328;7.820;2023-01-01T04:37:12;5.22;;;2.03;;
77330;SDS011;66405;48.328;7.820;2023-01-01T04:39:38;4.75;;;2.08;;
77330;SDS011;66405;48.328;7.820;2023-01-01T04:42:04;6.68;;;2.17;;
77330;SDS011;66405;48.328;7.820;2023-01-01T04:44:29;5.15;;;2.22;;
77330;SDS011;66405;48.328;7.820;2023-01-01T04:46:55;5.70;;;2.00;;
77330;SDS011;66405;48.328;7.820;2023-01-01T04:49:20;5.30;;;1.88;;
77330;SDS011;66405;48.328;7.820;2023-01-01T04:51:46;4.53;;;1.80;;
77330;SDS011;66405;48.328;7.820;2023-01-01T04:54:11;4.72;;;1.85;;
77330;SDS011;66405;48.328;7.820;2023-01-01T04:56:37;5.97;;;1.92;;
77330;SDS011;66405;48.328;7.820;2023-01-01T04:59:02;5.97;;;2.03;;
77330;SDS011;66405;48.328;7.820;2023-01-01T05:01:28;5.05;;;1.98;;
77330;SDS011;66405;48.328;7.820;2023-01-01T05:03:54;4.47;;;1.80;;
77330;SDS011;66405;48.328;7.820;2023-01-01T05:06:21;3.00;;;1.55;;
77330;SDS011;66405;48.328;7.820;2023-01-01T05:08:47;6.43;;;1.83;;
77330;SDS011;66405;48.328;7.820;2023-01-01T05:11:18;6.60;;;2.20;;
77330;SDS011;66405;48.328;7.820;2023-01-01T05:13:46;6.63;;;2.00;;
77330;SDS011;66405;48.328;7.820;2023-01-01T05:16:14;5.63;;;2.10;;
77330;SDS011;66405;48.328;7.820;2023-01-01T05:18:41;5.53;;;1.50;;
77330;SDS011;66405;48.328;7.820;2023-01-01T05:21:11;5.00;;;1.88;;
77330;SDS011;66405;48.328;7.820;2023-01-01T05:23:38;3.65;;;1.40;;
77330;SDS011;66405;48.328;7.820;2023-01-01T05:26:11;7.63;;;2.15;;
77330;SDS011;66405;48.328;7.820;2023-01-01T05:28:38;5.55;;;1.80;;
77330;SDS011;66405;48.328;7.820;2023-01-01T05:31:05;6.43;;;1.98;;
77330;SDS011;66405;48.328;7.820;2023-01-01T05:33:32;3.85;;;1.58;;
77330;SDS011;66405;48.328;7.820;2023-01-01T05:35:58;4.93;;;1.73;;
77330;SDS011;66405;48.328;7.820;2023-01-01T05:38:24;6.32;;;2.67;;
77330;SDS011;66405;48.328;7.820;2023-01-01T05:40:49;4.57;;;1.60;;
77330;SDS011;66405;48.328;7.820;2023-01-01T05:43:15;7.18;;;2.22;;
77330;SDS011;66405;48.328;7.820;2023-01-01T05:45:42;4.07;;;1.60;;
77330;SDS011;66405;48.328;7.820;2023-01-01T05:48:08;7.43;;;2.40;;
77330;SDS011;66405;48.328;7.820;2023-01-01T05:50:34;5.10;;;1.90;;
77330;SDS011;66405;48.328;7.820;2023-01-01T05:53:00;7.00;;;1.48;;
77330;SDS011;66405;48.328;7.820;2023-01-01T05:55:26;4.07;;;1.40;;
77330;SDS011;66405;48.328;7.820;2023-01-01T05:57:52;4.32;;;1.60;;
77330;SDS011;66405;48.328;7.820;2023-01-01T06:00:17;5.40;;;1.70;;
77330;SDS011;66405;48.328;7.820;2023-01-01T06:02:43;8.10;;;2.03;;
77330;SDS011;66405;48.328;7.820;2023-01-01T06:05:08;4.90;;;1.70;;
77330;SDS011;66405;48.328;7.820;2023-01-01T06:07:35;5.55;;;1.63;;
77330;SDS011;66405;48.328;7.820;2023-01-01T06:10:01;3.40;;;1.52;;
77330;SDS011;66405;48.328;7.820;2023-01-01T06:12:27;8.15;;;1.92;;
77330;SDS011;66405;48.328;7.820;2023-01-01T06:14:53;5.10;;;1.70;;
77330;SDS011;66405;48.328;7.820;2023-01-01T06:17:18;6.35;;;1.92;;
77330;SDS011;66405;48.328;7.820;2023-01-01T06:19:44;8.35;;;2.03;;
77330;SDS011;66405;48.328;7.820;2023-01-01T06:22:09;5.07;;;1.80;;
77330;SDS011;66405;48.328;7.820;2023-01-01T06:24:35;4.82;;;1.40;;
77330;SDS011;66405;48.328;7.820;2023-01-01T06:27:00;5.18;;;1.80;;
77330;SDS011;66405;48.328;7.820;2023-01-01T06:29:25;4.68;;;1.98;;
77330;SDS011;66405;48.328;7.820;2023-01-01T06:31:51;5.55;;;2.25;;
77330;SDS011;66405;48.328;7.820;2023-01-01T06:34:16;5.78;;;1.85;;
77330;SDS011;66405;48.328;7.820;2023-01-01T06:36:46;9.82;;;2.25;;
77330;SDS011;66405;48.328;7.820;2023-01-01T06:39:12;5.70;;;1.88;;
77330;SDS011;66405;48.328;7.820;2023-01-01T06:41:37;7.45;;;1.98;;
77330;SDS011;66405;48.328;7.820;2023-01-01T06:44:03;6.57;;;2.47;;
77330;SDS011;66405;48.328;7.820;2023-01-01T06:46:30;8.73;;;1.90;;
77330;SDS011;66405;48.328;7.820;2023-01-01T06:49:02;6.82;;;1.88;;
77330;SDS011;66405;48.328;7.820;2023-01-01T06:51:30;5.15;;;1.60;;
77330;SDS011;66405;48.328;7.820;2023-01-01T06:54:06;4.57;;;1.90;;
77330;SDS011;66405;48.328;7.820;2023-01-01T06:56:33;5.07;;;1.80;;
77330;SDS011;66405;48.328;7.820;2023-01-01T06:58:59;6.57;;;2.13;;
77330;SDS011;66405;48.328;7.820;2023-01-01T07:01:25;5.90;;;1.90;;
77330;SDS011;66405;48.328;7.820;2023-01-01T07:03:56;6.95;;;2.10;;
77330;SDS011;66405;48.328;7.820;2023-01-01T07:06:27;5.75;;;1.90;;
77330;SDS011;66405;48.328;7.820;2023-01-01T07:08:54;6.93;;;2.15;;
77330;SDS011;66405;48.328;7.820;2023-01-01T07:11:19;5.18;;;1.83;;
77330;SDS011;66405;48.328;7.820;2023-01-01T07:13:45;5.35;;;2.20;;
77330;SDS011;66405;48.328;7.820;2023-01-01T07:16:11;5.75;;;2.10;;
77330;SDS011;66405;48.328;7.820;2023-01-01T07:18:36;8.75;;;2.03;;
77330;SDS011;66405;48.328;7.820;2023-01-01T07:21:03;7.22;;;2.03;;
77330;SDS011;66405;48.328;7.820;2023-01-01T07:23:33;7.93;;;2.40;;
77330;SDS011;66405;48.328;7.820;2023-01-01T07:26:03;9.02;;;2.30;;
77330;SDS011;66405;48.328;7.820;2023-01-01T07:28:28;5.38;;;2.38;;
77330;SDS011;66405;48.328;7.820;2023-01-01T07:30:54;9.93;;;2.28;;
77330;SDS011;66405;48.328;7.820;2023-01-01T07:33:20;8.05;;;1.95;;
77330;SDS011;66405;48.328;7.820;2023-01-01T07:35:47;4.80;;;1.80;;
77330;SDS011;66405;48.328;7.820;2023-01-01T07:38:13;5.75;;;2.53;;
77330;SDS011;66405;48.328;7.820;2023-01-01T07:40:39;4.55;;;1.67;;
77330;SDS011;66405;48.328;7.820;2023-01-01T07:43:05;5.47;;;2.33;;
77330;SDS011;66405;48.328;7.820;2023-01-01T07:45:32;5.68;;;1.90;;
77330;SDS011;66405;48.328;7.820;2023-01-01T07:47:59;8.25;;;2.45;;
77330;SDS011;66405;48.328;7.820;2023-01-01T07:50:26;6.18;;;2.50;;
77330;SDS011;66405;48.328;7.820;2023-01-01T07:52:54;5.40;;;2.00;;
77330;SDS011;66405;48.328;7.820;2023-01-01T07:55:19;6.22;;;2.45;;
77330;SDS011;66405;48.328;7.820;2023-01-01T07:57:45;6.70;;;2.22;;
77330;SDS011;66405;48.328;7.820;2023-01-01T08:00:13;5.90;;;2.03;;
77330;SDS011;66405;48.328;7.820;2023-01-01T08:02:41;7.25;;;1.80;;
77330;SDS011;66405;48.328;7.820;2023-01-01T08:05:07;5.75;;;2.25;;
77330;SDS011;66405;48.328;7.820;2023-01-01T08:07:33;4.53;;;1.95;;
77330;SDS011;66405;48.328;7.820;2023-01-01T08:10:00;4.97;;;1.80;;
77330;SDS011;66405;48.328;7.820;2023-01-01T08:12:25;5.30;;;2.10;;
77330;SDS011;66405;48.328;7.820;2023-01-01T08:14:51;9.57;;;2.28;;
77330;SDS011;66405;48.328;7.820;2023-01-01T08:17:17;5.55;;;1.92;;
77330;SDS011;66405;48.328;7.820;2023-01-01T08:19:42;5.55;;;2.20;;
77330;SDS011;66405;48.328;7.820;2023-01-01T08:22:09;7.05;;;1.92;;
77330;SDS011;66405;48.328;7.820;2023-01-01T08:24:35;4.95;;;2.00;;
77330;SDS011;66405;48.328;7.820;2023-01-01T08:27:00;6.85;;;1.90;;
77330;SDS011;66405;48.328;7.820;2023-01-01T08:29:26;7.05;;;2.10;;
77330;SDS011;66405;48.328;7.820;2023-01-01T08:31:57;5.38;;;1.92;;
77330;SDS011;66405;48.328;7.820;2023-01-01T08:34:22;7.25;;;2.65;;
77330;SDS011;66405;48.328;7.820;2023-01-01T08:36:48;5.78;;;2.00;;
77330;SDS011;66405;48.328;7.820;2023-01-01T08:39:14;5.53;;;2.33;;
77330;SDS011;66405;48.328;7.820;2023-01-01T08:41:39;5.55;;;2.00;;
77330;SDS011;66405;48.328;7.820;2023-01-01T08:44:04;4.50;;;1.83;;
77330;SDS011;66405;48.328;7.820;2023-01-01T08:46:30;6.55;;;1.90;;
77330;SDS011;66405;48.328;7.820;2023-01-01T08:48:55;6.22;;;2.15;;
77330;SDS011;66405;48.328;7.820;2023-01-01T08:51:21;7.55;;;2.03;;
77330;SDS011;66405;48.328;7.820;2023-01-01T08:53:46;6.93;;;2.10;;
77330;SDS011;66405;48.328;7.820;2023-01-01T08:56:12;8.73;;;1.98;;
77330;SDS011;66405;48.328;7.820;2023-01-01T08:58:40;8.80;;;1.83;;
77330;SDS011;66405;48.328;7.820;2023-01-01T09:01:06;6.82;;;2.15;;
77330;SDS011;66405;48.328;7.820;2023-01-01T09:03:32;6.15;;;1.92;;
77330;SDS011;66405;48.328;7.820;2023-01-01T09:05:58;6.93;;;1.75;;
77330;SDS011;66405;48.328;7.820;2023-01-01T09:08:24;9.35;;;1.95;;
77330;SDS011;66405;48.328;7.820;2023-01-01T09:10:50;7.38;;;1.88;;
77330;SDS011;66405;48.328;7.820;2023-01-01T09:13:18;5.22;;;2.25;;
77330;SDS011;66405;48.328;7.820;2023-01-01T09:15:46;5.57;;;1.90;;
77330;SDS011;66405;48.328;7.820;2023-01-01T09:18:12;5.43;;;1.88;;
77330;SDS011;66405;48.328;7.820;2023-01-01T09:20:38;5.85;;;1.67;;
77330;SDS011;66405;48.328;7.820;2023-01-01T09:23:05;7.03;;;2.30;;
77330;SDS011;66405;48.328;7.820;2023-01-01T09:25:32;4.75;;;1.70;;
77330;SDS011;66405;48.328;7.820;2023-01-01T09:27:59;4.70;;;1.75;;
77330;SDS011;66405;48.328;7.820;2023-01-01T09:30:25;5.35;;;1.83;;
77330;SDS011;66405;48.328;7.820;2023-01-01T09:32:51;4.35;;;1.70;;
77330;SDS011;66405;48.328;7.820;2023-01-01T09:35:16;5.13;;;1.65;;
77330;SDS011;66405;48.328;7.820;2023-01-01T09:37:41;5.72;;;2.17;;
77330;SDS011;66405;48.328;7.820;2023-01-01T09:40:08;6.85;;;1.83;;
77330;SDS011;66405;48.328;7.820;2023-01-01T09:42:50;7.05;;;1.90;;
77330;SDS011;66405;48.328;7.820;2023-01-01T09:45:27;5.88;;;1.80;;
77330;SDS011;66405;48.328;7.820;2023-01-01T09:48:03;27.90;;;15.98;;
77330;SDS011;66405;48.328;7.820;2023-01-01T09:50:35;7.22;;;1.95;;
77330;SDS011;66405;48.328;7.820;2023-01-01T09:53:05;9.32;;;2.42;;
77330;SDS011;66405;48.328;7.820;2023-01-01T09:58:09;3.53;;;1.65;;
77330;SDS011;66405;48.328;7.820;2023-01-01T10:00:36;6.05;;;1.98;;
77330;SDS011;66405;48.328;7.820;2023-01-01T10:13:44;6.35;;;2.05;;
77330;SDS011;66405;48.328;7.820;2023-01-01T10:16:16;5.68;;;2.25;;
77330;SDS011;66405;48.328;7.820;2023-01-01T10:18:47;6.07;;;1.85;;
77330;SDS011;66405;48.328;7.820;2023-01-01T10:23:58;37.42;;;23.23;;
77330;SDS011;66405;48.328;7.820;2023-01-01T10:26:25;12.25;;;3.25;;
77330;SDS011;66405;48.328;7.820;2023-01-01T10:29:02;8.00;;;2.17;;
77330;SDS011;66405;48.328;7.820;2023-01-01T10:31:32;8.82;;;2.00;;
77330;SDS011;66405;48.328;7.820;2023-01-01T10:36:57;7.90;;;2.20;;
77330;SDS011;66405;48.328;7.820;2023-01-01T10:39:25;6.50;;;1.95;;
77330;SDS011;66405;48.328;7.820;2023-01-01T10:41:51;6.75;;;2.03;;
77330;SDS011;66405;48.328;7.820;2023-01-01T10:44:27;4.75;;;1.90;;
77330;SDS011;66405;48.328;7.820;2023-01-01T10:46:58;6.75;;;1.55;;
77330;SDS011;66405;48.328;7.820;2023-01-01T10:49:28;6.35;;;2.03;;
77330;SDS011;66405;48.328;7.820;2023-01-01T10:51:54;4.97;;;1.83;;
77330;SDS011;66405;48.328;7.820;2023-01-01T10:57:12;8.75;;;1.90;;
77330;SDS011;66405;48.328;7.820;2023-01-01T10:59:41;5.65;;;2.20;;
77330;SDS011;66405;48.328;7.820;2023-01-01T11:04:47;4.18;;;1.50;;
77330;SDS011;66405;48.328;7.820;2023-01-01T11:07:32;5.90;;;2.10;;
77330;SDS011;66405;48.328;7.820;2023-01-01T11:09:59;4.10;;;1.70;;
77330;SDS011;66405;48.328;7.820;2023-01-01T11:12:33;12.52;;;4.25;;
77330;SDS011;66405;48.328;7.820;2023-01-01T11:15:00;11.77;;;5.95;;
77330;SDS011;66405;48.328;7.820;2023-01-01T11:17:29;8.82;;;2.95;;
77330;SDS011;66405;48.328;7.820;2023-01-01T11:19:58;6.47;;;1.98;;
77330;SDS011;66405;48.328;7.820;2023-01-01T11:25:27;8.38;;;1.92;;
77330;SDS011;66405;48.328;7.820;2023-01-01T11:30:38;5.88;;;1.80;;
77330;SDS011;66405;48.328;7.820;2023-01-01T11:33:04;5.85;;;1.50;;
77330;SDS011;66405;48.328;7.820;2023-01-01T11:35:37;4.25;;;1.92;;
77330;SDS011;66405;48.328;7.820;2023-01-01T11:38:16;10.95;;;1.98;;
77330;SDS011;66405;48.328;7.820;2023-01-01T11:40:45;8.10;;;2.50;;
77330;SDS011;66405;48.328;7.820;2023-01-01T11:43:21;7.35;;;2.50;;
77330;SDS011;66405;48.328;7.820;2023-01-01T11:48:16;4.88;;;1.80;;
77330;SDS011;66405;48.328;7.820;2023-01-01T11:51:03;7.07;;;2.10;;
77330;SDS011;66405;48.328;7.820;2023-01-01T11:53:38;6.20;;;2.08;;
77330;SDS011;66405;48.328;7.820;2023-01-01T11:58:58;4.38;;;1.70;;
77330;SDS011;66405;48.328;7.820;2023-01-01T12:01:39;6.93;;;1.30;;
77330;SDS011;66405;48.328;7.820;2023-01-01T12:04:29;6.72;;;1.65;;
77330;SDS011;66405;48.328;7.820;2023-01-01T12:07:12;6.40;;;1.88;;
77330;SDS011;66405;48.328;7.820;2023-01-01T12:12:50;5.20;;;1.25;;
77330;SDS011;66405;48.328;7.820;2023-01-01T12:15:26;4.47;;;1.50;;
77330;SDS011;66405;48.328;7.820;2023-01-01T12:20:56;4.32;;;1.30;;
77330;SDS011;66405;48.328;7.820;2023-01-01T12:23:25;6.57;;;2.22;;
77330;SDS011;66405;48.328;7.820;2023-01-01T12:36:59;8.48;;;2.50;;
77330;SDS011;66405;48.328;7.820;2023-01-01T12:42:49;9.02;;;1.67;;
77330;SDS011;66405;48.328;7.820;2023-01-01T12:45:36;4.82;;;1.75;;
77330;SDS011;66405;48.328;7.820;2023-01-01T12:58:57;6.88;;;1.85;;
77330;SDS011;66405;48.328;7.820;2023-01-01T13:01:29;5.65;;;1.60;;
77330;SDS011;66405;48.328;7.820;2023-01-01T13:04:03;7.57;;;1.40;;
77330;SDS011;66405;48.328;7.820;2023-01-01T13:09:26;10.50;;;2.20;;
77330;SDS011;66405;48.328;7.820;2023-01-01T13:11:59;8.32;;;1.50;;
77330;SDS011;66405;48.328;7.820;2023-01-01T13:14:39;9.57;;;1.92;;
77330;SDS011;66405;48.328;7.820;2023-01-01T13:17:22;5.47;;;1.85;;
77330;SDS011;66405;48.328;7.820;2023-01-01T13:19:49;8.15;;;1.98;;
77330;SDS011;66405;48.328;7.820;2023-01-01T13:38:48;4.90;;;1.48;;
77330;SDS011;66405;48.328;7.820;2023-01-01T14:02:58;11.38;;;2.42;;
77330;SDS011;66405;48.328;7.820;2023-01-01T14:06:28;7.63;;;1.95;;
77330;SDS011;66405;48.328;7.820;2023-01-01T14:08:34;4.93;;;1.45;;
77330;SDS011;66405;48.328;7.820;2023-01-01T14:11:01;4.20;;;1.50;;
77330;SDS011;66405;48.328;7.820;2023-01-01T14:13:40;7.68;;;1.50;;
77330;SDS011;66405;48.328;7.820;2023-01-01T14:16:07;8.98;;;1.38;;
77330;SDS011;66405;48.328;7.820;2023-01-01T14:18:42;9.23;;;2.15;;
77330;SDS011;66405;48.328;7.820;2023-01-01T14:21:13;4.47;;;1.52;;
77330;SDS011;66405;48.328;7.820;2023-01-01T14:23:49;8.13;;;2.10;;
77330;SDS011;66405;48.328;7.820;2023-01-01T14:26:22;11.13;;;3.83;;
77330;SDS011;66405;48.328;7.820;2023-01-01T14:28:56;7.40;;;2.83;;
77330;SDS011;66405;48.328;7.820;2023-01-01T14:31:23;8.02;;;2.53;;
77330;SDS011;66405;48.328;7.820;2023-01-01T14:33:52;28.85;;;16.98;;
77330;SDS011;66405;48.328;7.820;2023-01-01T14:36:23;15.20;;;7.85;;
77330;SDS011;66405;48.328;7.820;2023-01-01T14:38:56;7.82;;;3.22;;
77330;SDS011;66405;48.328;7.820;2023-01-01T14:43:54;21.55;;;9.73;;
77330;SDS011;66405;48.328;7.820;2023-01-01T14:46:22;14.32;;;5.95;;
77330;SDS011;66405;48.328;7.820;2023-01-01T14:48:50;14.93;;;5.35;;
77330;SDS011;66405;48.328;7.820;2023-01-01T14:51:19;13.85;;;5.88;;
77330;SDS011;66405;48.328;7.820;2023-01-01T14:53:48;10.55;;;4.95;;
77330;SDS011;66405;48.328;7.820;2023-01-01T14:56:28;13.25;;;7.60;;
77330;SDS011;66405;48.328;7.820;2023-01-01T15:02:42;11.48;;;2.70;;
77330;SDS011;66405;48.328;7.820;2023-01-01T15:04:57;10.68;;;3.38;;
77330;SDS011;66405;48.328;7.820;2023-01-01T15:07:44;9.20;;;2.20;;
77330;SDS011;66405;48.328;7.820;2023-01-01T15:10:20;7.22;;;2.30;;
77330;SDS011;66405;48.328;7.820;2023-01-01T15:12:45;8.57;;;2.42;;
77330;SDS011;66405;48.328;7.820;2023-01-01T15:18:01;10.00;;;2.65;;
77330;SDS011;66405;48.328;7.820;2023-01-01T15:20:27;8.82;;;2.60;;
77330;SDS011;66405;48.328;7.820;2023-01-01T15:22:54;6.72;;;2.30;;
77330;SDS011;66405;48.328;7.820;2023-01-01T15:25:20;5.97;;;1.90;;
77330;SDS011;66405;48.328;7.820;2023-01-01T15:27:50;8.20;;;2.30;;
77330;SDS011;66405;48.328;7.820;2023-01-01T15:32:48;9.88;;;2.05;;
77330;SDS011;66405;48.328;7.820;2023-01-01T15:35:18;9.75;;;3.20;;
77330;SDS011;66405;48.328;7.820;2023-01-01T15:37:50;9.02;;;2.88;;
77330;SDS011;66405;48.328;7.820;2023-01-01T15:43:10;16.15;;;5.95;;
77330;SDS011;66405;48.328;7.820;2023-01-01T15:45:40;25.73;;;7.20;;
77330;SDS011;66405;48.328;7.820;2023-01-01T15:53:23;14.38;;;3.42;;
77330;SDS011;66405;48.328;7.820;2023-01-01T15:55:54;9.60;;;3.72;;
77330;SDS011;66405;48.328;7.820;2023-01-01T16:01:22;17.92;;;10.93;;
77330;SDS011;66405;48.328;7.820;2023-01-01T16:03:50;20.40;;;10.02;;
77330;SDS011;66405;48.328;7.820;2023-01-01T16:06:19;16.08;;;7.85;;
77330;SDS011;66405;48.328;7.820;2023-01-01T16:08:47;13.30;;;4.82;;
77330;SDS011;66405;48.328;7.820;2023-01-01T16:11:12;13.38;;;5.15;;
77330;SDS011;66405;48.328;7.820;2023-01-01T16:13:39;11.80;;;3.05;;
77330;SDS011;66405;48.328;7.820;2023-01-01T16:16:04;10.65;;;3.25;;
77330;SDS011;66405;48.328;7.820;2023-01-01T16:18:46;8.35;;;2.45;;
77330;SDS011;66405;48.328;7.820;2023-01-01T16:21:12;9.90;;;3.65;;
77330;SDS011;66405;48.328;7.820;2023-01-01T16:23:37;18.27;;;8.80;;
77330;SDS011;66405;48.328;7.820;2023-01-01T16:26:03;22.10;;;15.48;;
77330;SDS011;66405;48.328;7.820;2023-01-01T16:28:28;49.63;;;31.58;;
77330;SDS011;66405;48.328;7.820;2023-01-01T16:30:54;19.90;;;11.85;;
77330;SDS011;66405;48.328;7.820;2023-01-01T16:33:21;21.55;;;12.65;;
77330;SDS011;66405;48.328;7.820;2023-01-01T16:35:47;31.60;;;17.73;;
77330;SDS011;66405;48.328;7.820;2023-01-01T16:38:17;11.07;;;5.18;;
77330;SDS011;66405;48.328;7.820;2023-01-01T16:40:42;9.35;;;3.05;;
77330;SDS011;66405;48.328;7.820;2023-01-01T16:43:13;24.27;;;10.85;;
77330;SDS011;66405;48.328;7.820;2023-01-01T16:45:40;14.35;;;5.88;;
77330;SDS011;66405;48.328;7.820;2023-01-01T16:48:06;8.35;;;2.92;;
77330;SDS011;66405;48.328;7.820;2023-01-01T16:50:32;34.25;;;11.55;;
77330;SDS011;66405;48.328;7.820;2023-01-01T16:52:57;90.45;;;24.30;;
77330;SDS011;66405;48.328;7.820;2023-01-01T16:55:23;56.63;;;25.75;;
77330;SDS011;66405;48.328;7.820;2023-01-01T16:57:48;63.20;;;18.38;;
77330;SDS011;66405;48.328;7.820;2023-01-01T17:00:14;41.50;;;14.27;;
77330;SDS011;66405;48.328;7.820;2023-01-01T17:02:50;18.83;;;6.10;;
77330;SDS011;66405;48.328;7.820;2023-01-01T17:05:15;22.98;;;8.23;;
77330;SDS011;66405;48.328;7.820;2023-01-01T17:07:41;13.57;;;5.72;;
77330;SDS011;66405;48.328;7.820;2023-01-01T17:10:06;10.02;;;3.15;;
77330;SDS011;66405;48.328;7.820;2023-01-01T17:12:34;7.18;;;2.90;;
77330;SDS011;66405;48.328;7.820;2023-01-01T17:15:00;8.75;;;4.00;;
77330;SDS011;66405;48.328;7.820;2023-01-01T17:17:25;10.02;;;4.13;;
77330;SDS011;66405;48.328;7.820;2023-01-01T17:19:51;10.48;;;4.95;;
77330;SDS011;66405;48.328;7.820;2023-01-01T17:22:16;10.38;;;5.18;;
77330;SDS011;66405;48.328;7.820;2023-01-01T17:24:42;15.20;;;6.15;;
77330;SDS011;66405;48.328;7.820;2023-01-01T17:27:08;18.00;;;6.13;;
77330;SDS011;66405;48.328;7.820;2023-01-01T17:29:34;19.38;;;7.25;;